sensor_id;sensor_type;location;lat;lon;timestamp;pressure;altitude;pressure_sealevel;temperature;humidity
39177;BME280;24904;52.208;21.192;2022-07-29T00:04:30;101067.59;;;13.65;70.53
39177;BME280;24904;52.208;21.192;2022-07-29T00:09:33;101071.33;;;13.61;70.60
39177;BME280;24904;52.208;21.192;2022-07-29T00:14:36;101073.54;;;13.61;70.84
39177;BME280;24904;52.208;21.192;2022-07-29T00:19:39;101073.93;;;13.61;70.89
39177;BME280;24904;52.208;21.192;2022-07-29T00:24:43;101076.53;;;13.61;71.05
39177;BME280;24904;52.208;21.192;2022-07-29T00:29:46;101076.60;;;13.60;71.16
39177;BME280;24904;52.208;21.192;2022-07-29T00:34:49;101076.05;;;13.62;71.17
39177;BME280;24904;52.208;21.192;2022-07-29T00:40:11;101080.80;;;13.62;71.08
39177;BME280;24904;52.208;21.192;2022-07-29T00:45:16;101080.75;;;13.57;71.37
39177;BME280;24904;52.208;21.192;2022-07-29T00:50:19;101076.25;;;13.49;71.42
39177;BME280;24904;52.208;21.192;2022-07-29T00:55:23;101074.71;;;13.46;71.59
39177;BME280;24904;52.208;21.192;2022-07-29T01:00:27;101076.91;;;13.44;71.62
39177;BME280;24904;52.208;21.192;2022-07-29T01:05:31;101072.33;;;13.43;71.99
39177;BME280;24904;52.208;21.192;2022-07-29T01:10:37;101070.45;;;13.44;72.17
39177;BME280;24904;52.208;21.192;2022-07-29T01:15:45;101073.83;;;13.50;72.35
39177;BME280;24904;52.208;21.192;2022-07-29T01:21:20;101066.70;;;13.53;72.38
39177;BME280;24904;52.208;21.192;2022-07-29T01:26:42;101063.67;;;13.60;72.41
39177;BME280;24904;52.208;21.192;2022-07-29T01:31:54;101061.14;;;13.66;72.45
39177;BME280;24904;52.208;21.192;2022-07-29T01:37:05;101065.69;;;13.73;72.33
39177;BME280;24904;52.208;21.192;2022-07-29T01:42:19;101070.51;;;13.74;72.34
39177;BME280;24904;52.208;21.192;2022-07-29T01:47:26;101067.45;;;13.76;72.25
39177;BME280;24904;52.208;21.192;2022-07-29T01:52:39;101066.25;;;13.75;72.21
39177;BME280;24904;52.208;21.192;2022-07-29T01:57:48;101068.98;;;13.71;72.35
39177;BME280;24904;52.208;21.192;2022-07-29T02:02:53;101066.05;;;13.67;72.40
39177;BME280;24904;52.208;21.192;2022-07-29T02:07:58;101073.72;;;13.64;72.58
39177;BME280;24904;52.208;21.192;2022-07-29T02:13:04;101076.60;;;13.59;72.61
39177;BME280;24904;52.208;21.192;2022-07-29T02:18:13;101070.41;;;13.54;72.68
39177;BME280;24904;52.208;21.192;2022-07-29T02:23:20;101075.94;;;13.50;72.72
39177;BME280;24904;52.208;21.192;2022-07-29T02:28:30;101075.28;;;13.47;72.76
39177;BME280;24904;52.208;21.192;2022-07-29T02:33:36;101071.30;;;13.42;72.77
39177;BME280;24904;52.208;21.192;2022-07-29T02:38:42;101075.91;;;13.38;72.83
39177;BME280;24904;52.208;21.192;2022-07-29T02:44:03;101077.00;;;13.30;73.05
39177;BME280;24904;52.208;21.192;2022-07-29T02:49:13;101075.95;;;13.27;73.18
39177;BME280;24904;52.208;21.192;2022-07-29T02:54:26;101072.73;;;13.18;73.46
39177;BME280;24904;52.208;21.192;2022-07-29T02:59:36;101075.77;;;13.15;73.63
39177;BME280;24904;52.208;21.192;2022-07-29T03:04:43;101074.36;;;13.15;73.84
39177;BME280;24904;52.208;21.192;2022-07-29T03:09:49;101076.87;;;13.08;74.08
39177;BME280;24904;52.208;21.192;2022-07-29T03:14:55;101079.80;;;13.04;74.34
39177;BME280;24904;52.208;21.192;2022-07-29T03:20:01;101076.67;;;13.06;74.53
39177;BME280;24904;52.208;21.192;2022-07-29T03:25:11;101078.11;;;13.07;74.45
39177;BME280;24904;52.208;21.192;2022-07-29T03:30:16;101084.38;;;13.05;74.58
39177;BME280;24904;52.208;21.192;2022-07-29T03:35:21;101088.59;;;13.07;74.72
39177;BME280;24904;52.208;21.192;2022-07-29T03:40:30;101087.55;;;13.07;74.81
39177;BME280;24904;52.208;21.192;2022-07-29T03:45:36;101077.20;;;13.03;75.22
39177;BME280;24904;52.208;21.192;2022-07-29T03:50:42;101075.54;;;13.03;75.67
39177;BME280;24904;52.208;21.192;2022-07-29T03:55:50;101076.77;;;13.07;75.86
39177;BME280;24904;52.208;21.192;2022-07-29T04:00:56;101076.86;;;13.14;76.11
39177;BME280;24904;52.208;21.192;2022-07-29T04:06:03;101072.11;;;13.23;76.34
39177;BME280;24904;52.208;21.192;2022-07-29T04:11:09;101078.83;;;13.32;76.61
39177;BME280;24904;52.208;21.192;2022-07-29T04:16:14;101076.91;;;13.44;76.75
39177;BME280;24904;52.208;21.192;2022-07-29T04:21:18;101081.70;;;13.57;77.03
39177;BME280;24904;52.208;21.192;2022-07-29T04:26:23;101083.40;;;13.69;77.24
39177;BME280;24904;52.208;21.192;2022-07-29T04:31:28;101077.77;;;13.84;77.20
39177;BME280;24904;52.208;21.192;2022-07-29T04:36:33;101079.02;;;13.98;77.19
39177;BME280;24904;52.208;21.192;2022-07-29T04:41:37;101077.45;;;14.11;77.28
39177;BME280;24904;52.208;21.192;2022-07-29T04:46:40;101082.86;;;14.25;77.32
39177;BME280;24904;52.208;21.192;2022-07-29T04:51:43;101089.83;;;14.40;77.45
39177;BME280;24904;52.208;21.192;2022-07-29T04:56:46;101089.41;;;14.56;77.36
39177;BME280;24904;52.208;21.192;2022-07-29T05:01:50;101095.74;;;14.71;77.20
39177;BME280;24904;52.208;21.192;2022-07-29T05:06:53;101099.30;;;14.87;77.10
39177;BME280;24904;52.208;21.192;2022-07-29T05:11:56;101105.15;;;15.03;76.94
39177;BME280;24904;52.208;21.192;2022-07-29T05:16:59;101108.39;;;15.21;76.72
39177;BME280;24904;52.208;21.192;2022-07-29T05:22:02;101109.16;;;15.37;76.53
39177;BME280;24904;52.208;21.192;2022-07-29T05:27:05;101107.55;;;15.55;76.60
39177;BME280;24904;52.208;21.192;2022-07-29T05:32:09;101108.56;;;15.73;76.27
39177;BME280;24904;52.208;21.192;2022-07-29T05:37:12;101113.42;;;15.92;76.13
39177;BME280;24904;52.208;21.192;2022-07-29T05:42:15;101113.12;;;16.11;75.60
39177;BME280;24904;52.208;21.192;2022-07-29T05:47:18;101109.55;;;16.30;75.33
39177;BME280;24904;52.208;21.192;2022-07-29T05:52:21;101104.47;;;16.49;74.98
39177;BME280;24904;52.208;21.192;2022-07-29T05:57:24;101102.86;;;16.69;74.45
39177;BME280;24904;52.208;21.192;2022-07-29T06:02:28;101096.40;;;16.88;73.97
39177;BME280;24904;52.208;21.192;2022-07-29T06:07:31;101092.46;;;17.04;73.57
39177;BME280;24904;52.208;21.192;2022-07-29T06:12:34;101091.43;;;17.22;73.18
39177;BME280;24904;52.208;21.192;2022-07-29T06:17:37;101090.79;;;17.42;72.87
39177;BME280;24904;52.208;21.192;2022-07-29T06:22:41;101090.58;;;17.63;72.29
39177;BME280;24904;52.208;21.192;2022-07-29T06:27:44;101091.04;;;17.83;71.89
39177;BME280;24904;52.208;21.192;2022-07-29T06:32:47;101086.77;;;18.00;70.87
39177;BME280;24904;52.208;21.192;2022-07-29T06:37:50;101092.58;;;18.19;70.51
39177;BME280;24904;52.208;21.192;2022-07-29T06:42:54;101089.54;;;18.38;70.04
39177;BME280;24904;52.208;21.192;2022-07-29T06:47:57;101082.98;;;18.59;69.61
39177;BME280;24904;52.208;21.192;2022-07-29T06:53:00;101086.23;;;18.76;68.62
39177;BME280;24904;52.208;21.192;2022-07-29T06:58:03;101085.86;;;18.89;67.61
39177;BME280;24904;52.208;21.192;2022-07-29T07:03:06;101086.38;;;19.05;67.25
39177;BME280;24904;52.208;21.192;2022-07-29T07:08:10;101087.42;;;19.23;66.88
39177;BME280;24904;52.208;21.192;2022-07-29T07:13:13;101085.23;;;19.45;66.35
39177;BME280;24904;52.208;21.192;2022-07-29T07:18:17;101087.02;;;19.66;65.86
39177;BME280;24904;52.208;21.192;2022-07-29T07:23:20;101081.80;;;19.85;65.03
39177;BME280;24904;52.208;21.192;2022-07-29T07:28:23;101082.38;;;20.03;64.62
39177;BME280;24904;52.208;21.192;2022-07-29T07:33:27;101083.70;;;20.24;64.12
39177;BME280;24904;52.208;21.192;2022-07-29T07:38:30;101085.16;;;20.46;63.51
39177;BME280;24904;52.208;21.192;2022-07-29T07:43:33;101083.79;;;20.65;62.58
39177;BME280;24904;52.208;21.192;2022-07-29T07:48:36;101080.93;;;20.85;62.34
39177;BME280;24904;52.208;21.192;2022-07-29T07:53:39;101086.09;;;21.05;61.77
39177;BME280;24904;52.208;21.192;2022-07-29T07:58:43;101086.30;;;21.23;60.95
39177;BME280;24904;52.208;21.192;2022-07-29T08:03:46;101087.45;;;21.41;60.71
39177;BME280;24904;52.208;21.192;2022-07-29T08:08:49;101087.00;;;21.56;59.88
39177;BME280;24904;52.208;21.192;2022-07-29T08:13:52;101091.91;;;21.59;58.81
39177;BME280;24904;52.208;21.192;2022-07-29T08:18:55;101084.88;;;21.65;58.50
39177;BME280;24904;52.208;21.192;2022-07-29T08:23:59;101085.50;;;21.83;58.00
39177;BME280;24904;52.208;21.192;2022-07-29T08:29:16;101087.52;;;22.03;57.57
39177;BME280;24904;52.208;21.192;2022-07-29T08:34:19;101079.55;;;22.22;57.10
39177;BME280;24904;52.208;21.192;2022-07-29T08:39:23;101080.90;;;22.44;55.88
39177;BME280;24904;52.208;21.192;2022-07-29T08:44:27;101080.27;;;22.58;55.91
39177;BME280;24904;52.208;21.192;2022-07-29T08:49:30;101079.16;;;22.67;55.64
39177;BME280;24904;52.208;21.192;2022-07-29T08:54:35;101080.64;;;22.76;54.50
39177;BME280;24904;52.208;21.192;2022-07-29T08:59:41;101085.02;;;22.87;54.76
39177;BME280;24904;52.208;21.192;2022-07-29T09:04:45;101086.35;;;22.99;53.52
39177;BME280;24904;52.208;21.192;2022-07-29T09:09:49;101081.04;;;23.09;52.61
39177;BME280;24904;52.208;21.192;2022-07-29T09:14:52;101073.45;;;23.08;51.67
39177;BME280;24904;52.208;21.192;2022-07-29T09:20:09;101066.84;;;22.81;51.45
39177;BME280;24904;52.208;21.192;2022-07-29T09:25:13;101065.61;;;22.68;52.23
39177;BME280;24904;52.208;21.192;2022-07-29T09:30:16;101070.96;;;22.56;52.06
39177;BME280;24904;52.208;21.192;2022-07-29T09:35:22;101070.90;;;22.47;51.34
39177;BME280;24904;52.208;21.192;2022-07-29T09:40:27;101067.19;;;22.42;51.43
39177;BME280;24904;52.208;21.192;2022-07-29T09:45:32;101060.15;;;22.57;51.85
39177;BME280;24904;52.208;21.192;2022-07-29T09:50:37;101063.39;;;22.64;50.85
39177;BME280;24904;52.208;21.192;2022-07-29T09:55:50;101052.96;;;22.80;51.28
39177;BME280;24904;52.208;21.192;2022-07-29T10:00:54;101047.71;;;23.01;50.86
39177;BME280;24904;52.208;21.192;2022-07-29T10:06:09;101046.67;;;23.17;49.75
39177;BME280;24904;52.208;21.192;2022-07-29T10:11:14;101043.73;;;23.25;49.10
39177;BME280;24904;52.208;21.192;2022-07-29T10:16:17;101041.23;;;23.28;48.75
39177;BME280;24904;52.208;21.192;2022-07-29T10:21:21;101036.80;;;23.31;48.73
39177;BME280;24904;52.208;21.192;2022-07-29T10:26:24;101038.52;;;23.25;47.35
39177;BME280;24904;52.208;21.192;2022-07-29T10:31:34;101030.96;;;23.18;47.74
39177;BME280;24904;52.208;21.192;2022-07-29T10:36:50;101031.91;;;23.16;47.77
39177;BME280;24904;52.208;21.192;2022-07-29T10:42:15;101024.50;;;23.10;47.77
39177;BME280;24904;52.208;21.192;2022-07-29T10:47:23;101021.08;;;23.12;47.89
39177;BME280;24904;52.208;21.192;2022-07-29T10:52:52;101017.20;;;23.20;47.43
39177;BME280;24904;52.208;21.192;2022-07-29T10:58:13;101023.20;;;23.31;47.74
39177;BME280;24904;52.208;21.192;2022-07-29T11:03:46;101018.52;;;23.43;46.96
39177;BME280;24904;52.208;21.192;2022-07-29T11:09:17;101016.30;;;23.39;46.62
39177;BME280;24904;52.208;21.192;2022-07-29T11:14:55;101014.33;;;23.36;45.58
39177;BME280;24904;52.208;21.192;2022-07-29T11:20:31;101002.46;;;23.24;45.98
39177;BME280;24904;52.208;21.192;2022-07-29T11:25:34;101006.71;;;23.18;45.38
39177;BME280;24904;52.208;21.192;2022-07-29T11:30:48;101006.64;;;23.13;46.11
39177;BME280;24904;52.208;21.192;2022-07-29T11:36:09;101002.23;;;23.18;46.01
39177;BME280;24904;52.208;21.192;2022-07-29T11:41:23;101001.82;;;23.21;45.78
39177;BME280;24904;52.208;21.192;2022-07-29T11:46:50;100993.75;;;23.20;45.92
39177;BME280;24904;52.208;21.192;2022-07-29T11:51:54;100993.59;;;23.23;45.50
39177;BME280;24904;52.208;21.192;2022-07-29T11:56:58;100986.66;;;23.25;45.60
39177;BME280;24904;52.208;21.192;2022-07-29T12:02:02;100981.84;;;23.38;45.81
39177;BME280;24904;52.208;21.192;2022-07-29T12:07:05;100980.38;;;23.56;45.21
39177;BME280;24904;52.208;21.192;2022-07-29T12:12:08;100976.28;;;23.71;44.76
39177;BME280;24904;52.208;21.192;2022-07-29T12:17:26;100975.71;;;23.79;44.33
39177;BME280;24904;52.208;21.192;2022-07-29T12:22:31;100979.06;;;23.76;44.47
39177;BME280;24904;52.208;21.192;2022-07-29T12:27:34;100977.30;;;23.67;44.28
39177;BME280;24904;52.208;21.192;2022-07-29T12:32:40;100980.55;;;23.63;43.98
39177;BME280;24904;52.208;21.192;2022-07-29T12:37:45;100969.98;;;23.70;43.97
39177;BME280;24904;52.208;21.192;2022-07-29T12:43:13;100960.17;;;23.76;43.98
39177;BME280;24904;52.208;21.192;2022-07-29T12:48:31;100957.93;;;23.71;43.32
39177;BME280;24904;52.208;21.192;2022-07-29T12:53:36;100956.17;;;23.56;43.60
39177;BME280;24904;52.208;21.192;2022-07-29T12:58:40;100955.20;;;23.49;43.97
39177;BME280;24904;52.208;21.192;2022-07-29T13:03:55;100953.20;;;23.45;43.22
39177;BME280;24904;52.208;21.192;2022-07-29T13:09:05;100952.25;;;23.46;43.72
39177;BME280;24904;52.208;21.192;2022-07-29T13:14:10;100953.59;;;23.47;43.80
39177;BME280;24904;52.208;21.192;2022-07-29T13:19:13;100948.79;;;23.42;43.61
39177;BME280;24904;52.208;21.192;2022-07-29T13:24:17;100939.20;;;23.46;44.35
39177;BME280;24904;52.208;21.192;2022-07-29T13:29:20;100928.94;;;23.57;44.11
39177;BME280;24904;52.208;21.192;2022-07-29T13:34:23;100920.09;;;23.65;44.16
39177;BME280;24904;52.208;21.192;2022-07-29T13:39:26;100925.29;;;23.73;43.65
39177;BME280;24904;52.208;21.192;2022-07-29T13:44:29;100922.55;;;23.73;43.09
39177;BME280;24904;52.208;21.192;2022-07-29T13:49:33;100915.65;;;23.71;43.27
39177;BME280;24904;52.208;21.192;2022-07-29T13:54:36;100912.45;;;23.78;43.27
39177;BME280;24904;52.208;21.192;2022-07-29T13:59:40;100908.21;;;23.80;42.91
39177;BME280;24904;52.208;21.192;2022-07-29T14:04:44;100910.61;;;23.80;42.89
39177;BME280;24904;52.208;21.192;2022-07-29T14:09:47;100910.43;;;23.76;42.28
39177;BME280;24904;52.208;21.192;2022-07-29T14:14:50;100906.20;;;23.61;42.48
39177;BME280;24904;52.208;21.192;2022-07-29T14:19:53;100905.11;;;23.50;42.16
39177;BME280;24904;52.208;21.192;2022-07-29T14:24:57;100899.35;;;23.45;42.33
39177;BME280;24904;52.208;21.192;2022-07-29T14:30:00;100892.93;;;23.43;42.77
39177;BME280;24904;52.208;21.192;2022-07-29T14:35:03;100893.42;;;23.43;42.67
39177;BME280;24904;52.208;21.192;2022-07-29T14:40:09;100881.39;;;23.44;42.53
39177;BME280;24904;52.208;21.192;2022-07-29T14:45:12;100878.44;;;23.46;42.37
39177;BME280;24904;52.208;21.192;2022-07-29T14:50:15;100879.02;;;23.48;42.45
39177;BME280;24904;52.208;21.192;2022-07-29T14:55:19;100874.89;;;23.42;41.74
39177;BME280;24904;52.208;21.192;2022-07-29T15:00:22;100874.40;;;23.37;41.89
39177;BME280;24904;52.208;21.192;2022-07-29T15:05:25;100873.66;;;23.32;42.11
39177;BME280;24904;52.208;21.192;2022-07-29T15:10:29;100869.33;;;23.27;41.97
39177;BME280;24904;52.208;21.192;2022-07-29T15:15:32;100865.82;;;23.21;42.04
39177;BME280;24904;52.208;21.192;2022-07-29T15:20:35;100861.03;;;23.18;42.05
39177;BME280;24904;52.208;21.192;2022-07-29T15:25:38;100855.23;;;23.17;42.04
39177;BME280;24904;52.208;21.192;2022-07-29T15:30:42;100847.26;;;23.16;42.07
39177;BME280;24904;52.208;21.192;2022-07-29T15:35:45;100843.95;;;23.15;41.73
39177;BME280;24904;52.208;21.192;2022-07-29T15:40:48;100837.39;;;23.12;42.23
39177;BME280;24904;52.208;21.192;2022-07-29T15:45:51;100838.27;;;23.09;42.08
39177;BME280;24904;52.208;21.192;2022-07-29T15:51:13;100829.66;;;23.08;41.78
39177;BME280;24904;52.208;21.192;2022-07-29T15:56:16;100821.02;;;23.05;41.55
39177;BME280;24904;52.208;21.192;2022-07-29T16:01:19;100821.36;;;23.02;41.55
39177;BME280;24904;52.208;21.192;2022-07-29T16:06:22;100822.55;;;22.98;41.40
39177;BME280;24904;52.208;21.192;2022-07-29T16:11:25;100822.01;;;22.93;41.43
39177;BME280;24904;52.208;21.192;2022-07-29T16:16:29;100821.62;;;22.88;41.46
39177;BME280;24904;52.208;21.192;2022-07-29T16:21:33;100822.99;;;22.82;41.40
39177;BME280;24904;52.208;21.192;2022-07-29T16:26:36;100818.68;;;22.73;41.55
39177;BME280;24904;52.208;21.192;2022-07-29T16:31:39;100818.63;;;22.65;41.48
39177;BME280;24904;52.208;21.192;2022-07-29T16:36:42;100816.94;;;22.58;41.93
39177;BME280;24904;52.208;21.192;2022-07-29T16:41:46;100819.85;;;22.52;41.98
39177;BME280;24904;52.208;21.192;2022-07-29T16:46:49;100825.48;;;22.47;42.09
39177;BME280;24904;52.208;21.192;2022-07-29T16:51:52;100824.60;;;22.43;42.19
39177;BME280;24904;52.208;21.192;2022-07-29T16:56:55;100833.19;;;22.39;42.12
39177;BME280;24904;52.208;21.192;2022-07-29T17:01:58;100833.15;;;22.35;42.81
39177;BME280;24904;52.208;21.192;2022-07-29T17:07:03;100842.48;;;22.31;42.61
39177;BME280;24904;52.208;21.192;2022-07-29T17:12:08;100835.92;;;22.26;42.34
39177;BME280;24904;52.208;21.192;2022-07-29T17:17:11;100835.34;;;22.22;42.23
39177;BME280;24904;52.208;21.192;2022-07-29T17:22:14;100838.25;;;22.19;42.54
39177;BME280;24904;52.208;21.192;2022-07-29T17:27:17;100840.94;;;22.15;42.24
39177;BME280;24904;52.208;21.192;2022-07-29T17:32:20;100838.20;;;22.13;42.41
39177;BME280;24904;52.208;21.192;2022-07-29T17:37:24;100844.27;;;22.11;42.40
39177;BME280;24904;52.208;21.192;2022-07-29T17:42:27;100844.73;;;22.08;43.39
39177;BME280;24904;52.208;21.192;2022-07-29T17:47:30;100847.23;;;22.04;42.59
39177;BME280;24904;52.208;21.192;2022-07-29T17:52:34;100846.16;;;21.99;42.72
39177;BME280;24904;52.208;21.192;2022-07-29T17:57:37;100845.88;;;21.95;43.26
39177;BME280;24904;52.208;21.192;2022-07-29T18:02:40;100844.61;;;21.89;43.71
39177;BME280;24904;52.208;21.192;2022-07-29T18:07:43;100841.73;;;21.80;44.38
39177;BME280;24904;52.208;21.192;2022-07-29T18:12:47;100843.51;;;21.71;44.88
39177;BME280;24904;52.208;21.192;2022-07-29T18:17:50;100842.68;;;21.60;45.38
39177;BME280;24904;52.208;21.192;2022-07-29T18:22:53;100839.63;;;21.51;45.32
39177;BME280;24904;52.208;21.192;2022-07-29T18:27:56;100840.66;;;21.43;45.36
39177;BME280;24904;52.208;21.192;2022-07-29T18:32:59;100841.33;;;21.33;45.59
39177;BME280;24904;52.208;21.192;2022-07-29T18:38:03;100844.56;;;21.23;45.89
39177;BME280;24904;52.208;21.192;2022-07-29T18:43:07;100844.98;;;21.16;45.98
39177;BME280;24904;52.208;21.192;2022-07-29T18:48:11;100853.08;;;21.08;46.31
39177;BME280;24904;52.208;21.192;2022-07-29T18:53:14;100850.09;;;21.00;46.72
39177;BME280;24904;52.208;21.192;2022-07-29T18:58:17;100851.64;;;20.89;46.96
39177;BME280;24904;52.208;21.192;2022-07-29T19:03:20;100853.23;;;20.78;47.17
39177;BME280;24904;52.208;21.192;2022-07-29T19:08:23;100856.52;;;20.67;47.24
39177;BME280;24904;52.208;21.192;2022-07-29T19:13:26;100859.73;;;20.59;47.43
39177;BME280;24904;52.208;21.192;2022-07-29T19:18:29;100865.06;;;20.49;47.50
39177;BME280;24904;52.208;21.192;2022-07-29T19:23:33;100865.77;;;20.41;47.58
39177;BME280;24904;52.208;21.192;2022-07-29T19:28:36;100867.47;;;20.31;47.62
39177;BME280;24904;52.208;21.192;2022-07-29T19:33:39;100877.50;;;20.20;47.79
39177;BME280;24904;52.208;21.192;2022-07-29T19:38:42;100869.61;;;20.12;47.85
39177;BME280;24904;52.208;21.192;2022-07-29T19:43:45;100863.36;;;20.02;47.95
39177;BME280;24904;52.208;21.192;2022-07-29T19:48:49;100860.69;;;19.93;48.07
39177;BME280;24904;52.208;21.192;2022-07-29T19:53:52;100854.20;;;19.87;48.27
39177;BME280;24904;52.208;21.192;2022-07-29T19:58:55;100855.23;;;19.81;48.29
39177;BME280;24904;52.208;21.192;2022-07-29T20:03:58;100854.92;;;19.77;48.55
39177;BME280;24904;52.208;21.192;2022-07-29T20:09:02;100863.48;;;19.72;48.59
39177;BME280;24904;52.208;21.192;2022-07-29T20:14:07;100867.40;;;19.66;48.73
39177;BME280;24904;52.208;21.192;2022-07-29T20:19:10;100873.11;;;19.59;48.78
39177;BME280;24904;52.208;21.192;2022-07-29T20:24:13;100878.92;;;19.52;48.94
39177;BME280;24904;52.208;21.192;2022-07-29T20:29:16;100878.09;;;19.45;49.10
39177;BME280;24904;52.208;21.192;2022-07-29T20:34:19;100869.92;;;19.38;49.21
39177;BME280;24904;52.208;21.192;2022-07-29T20:39:22;100864.91;;;19.30;49.33
39177;BME280;24904;52.208;21.192;2022-07-29T20:44:25;100858.42;;;19.22;49.64
39177;BME280;24904;52.208;21.192;2022-07-29T20:49:29;100853.60;;;19.16;49.70
39177;BME280;24904;52.208;21.192;2022-07-29T20:54:32;100853.42;;;19.11;49.85
39177;BME280;24904;52.208;21.192;2022-07-29T20:59:35;100851.27;;;19.08;49.99
39177;BME280;24904;52.208;21.192;2022-07-29T21:04:38;100853.31;;;18.99;50.07
39177;BME280;24904;52.208;21.192;2022-07-29T21:09:42;100851.11;;;18.92;50.17
39177;BME280;24904;52.208;21.192;2022-07-29T21:14:45;100849.42;;;18.89;50.39
39177;BME280;24904;52.208;21.192;2022-07-29T21:19:49;100854.02;;;18.84;50.44
39177;BME280;24904;52.208;21.192;2022-07-29T21:24:53;100850.08;;;18.77;50.65
39177;BME280;24904;52.208;21.192;2022-07-29T21:29:57;100841.56;;;18.72;50.70
39177;BME280;24904;52.208;21.192;2022-07-29T21:35:00;100832.36;;;18.65;50.89
39177;BME280;24904;52.208;21.192;2022-07-29T21:40:04;100837.80;;;18.61;51.04
39177;BME280;24904;52.208;21.192;2022-07-29T21:45:09;100832.33;;;18.54;51.19
39177;BME280;24904;52.208;21.192;2022-07-29T21:50:12;100833.64;;;18.47;51.46
39177;BME280;24904;52.208;21.192;2022-07-29T21:55:15;100839.04;;;18.40;51.59
39177;BME280;24904;52.208;21.192;2022-07-29T22:00:19;100833.31;;;18.35;51.69
39177;BME280;24904;52.208;21.192;2022-07-29T22:05:22;100828.59;;;18.32;51.89
39177;BME280;24904;52.208;21.192;2022-07-29T22:10:27;100829.75;;;18.27;52.00
39177;BME280;24904;52.208;21.192;2022-07-29T22:15:30;100834.09;;;18.24;52.08
39177;BME280;24904;52.208;21.192;2022-07-29T22:20:34;100834.63;;;18.20;52.23
39177;BME280;24904;52.208;21.192;2022-07-29T22:25:37;100827.52;;;18.10;52.48
39177;BME280;24904;52.208;21.192;2022-07-29T22:30:40;100822.21;;;18.04;52.73
39177;BME280;24904;52.208;21.192;2022-07-29T22:35:43;100819.00;;;17.98;52.77
39177;BME280;24904;52.208;21.192;2022-07-29T22:40:46;100820.30;;;17.91;52.94
39177;BME280;24904;52.208;21.192;2022-07-29T22:45:51;100819.13;;;17.89;53.14
39177;BME280;24904;52.208;21.192;2022-07-29T22:50:54;100810.51;;;17.84;53.22
39177;BME280;24904;52.208;21.192;2022-07-29T22:55:57;100811.81;;;17.82;53.36
39177;BME280;24904;52.208;21.192;2022-07-29T23:01:00;100813.23;;;17.78;53.65
39177;BME280;24904;52.208;21.192;2022-07-29T23:06:04;100805.71;;;17.75;53.61
39177;BME280;24904;52.208;21.192;2022-07-29T23:11:07;100808.42;;;17.73;53.66
39177;BME280;24904;52.208;21.192;2022-07-29T23:16:10;100804.54;;;17.72;53.75
39177;BME280;24904;52.208;21.192;2022-07-29T23:21:14;100805.17;;;17.72;53.89
39177;BME280;24904;52.208;21.192;2022-07-29T23:26:17;100801.47;;;17.71;53.82
39177;BME280;24904;52.208;21.192;2022-07-29T23:31:20;100792.76;;;17.69;53.87
39177;BME280;24904;52.208;21.192;2022-07-29T23:36:23;100785.63;;;17.67;54.02
39177;BME280;24904;52.208;21.192;2022-07-29T23:41:29;100788.46;;;17.69;53.96
39177;BME280;24904;52.208;21.192;2022-07-29T23:46:33;100782.42;;;17.70;53.96
39177;BME280;24904;52.208;21.192;2022-07-29T23:51:36;100781.77;;;17.72;54.09
39177;BME280;24904;52.208;21.192;2022-07-29T23:56:39;100789.08;;;17.72;54.00
